sensor_id;sensor_type;location;lat;lon;timestamp;P1;durP1;ratioP1;P2;durP2;ratioP2
79365;SDS011;68833;53.160;17.920;2023-05-16T00:00:23;13.60;;;11.20;;
79365;SDS011;68833;53.160;17.920;2023-05-16T00:03:19;12.40;;;9.60;;
79365;SDS011;68833;53.160;17.920;2023-05-16T00:05:47;14.90;;;10.10;;
79365;SDS011;68833;53.160;17.920;2023-05-16T00:08:15;12.60;;;10.30;;
79365;SDS011;68833;53.160;17.920;2023-05-16T00:10:43;13.20;;;10.70;;
79365;SDS011;68833;53.160;17.920;2023-05-16T00:13:12;12.50;;;9.60;;
79365;SDS011;68833;53.160;17.920;2023-05-16T00:15:40;12.70;;;9.90;;
79365;SDS011;68833;53.160;17.920;2023-05-16T00:18:08;11.30;;;9.40;;
79365;SDS011;68833;53.160;17.920;2023-05-16T00:20:40;12.60;;;9.80;;
79365;SDS011;68833;53.160;17.920;2023-05-16T00:23:08;14.90;;;10.50;;
79365;SDS011;68833;53.160;17.920;2023-05-16T00:25:35;14.80;;;9.70;;
79365;SDS011;68833;53.160;17.920;2023-05-16T00:28:04;12.80;;;10.10;;
79365;SDS011;68833;53.160;17.920;2023-05-16T00:30:32;11.50;;;9.80;;
79365;SDS011;68833;53.160;17.920;2023-05-16T00:33:00;13.80;;;9.00;;
79365;SDS011;68833;53.160;17.920;2023-05-16T00:35:28;10.50;;;9.30;;
79365;SDS011;68833;53.160;17.920;2023-05-16T00:37:57;13.90;;;9.70;;
79365;SDS011;68833;53.160;17.920;2023-05-16T00:40:25;11.80;;;9.10;;
79365;SDS011;68833;53.160;17.920;2023-05-16T00:42:53;10.80;;;8.40;;
79365;SDS011;68833;53.160;17.920;2023-05-16T00:45:22;10.60;;;8.50;;
79365;SDS011;68833;53.160;17.920;2023-05-16T00:47:53;13.70;;;8.80;;
79365;SDS011;68833;53.160;17.920;2023-05-16T00:50:21;13.40;;;9.10;;
79365;SDS011;68833;53.160;17.920;2023-05-16T00:52:59;10.60;;;8.20;;
79365;SDS011;68833;53.160;17.920;2023-05-16T00:55:34;10.80;;;8.90;;
79365;SDS011;68833;53.160;17.920;2023-05-16T00:58:02;10.40;;;7.20;;
79365;SDS011;68833;53.160;17.920;2023-05-16T01:00:31;10.30;;;7.50;;
79365;SDS011;68833;53.160;17.920;2023-05-16T01:02:58;11.30;;;6.90;;
79365;SDS011;68833;53.160;17.920;2023-05-16T01:05:25;9.70;;;7.10;;
79365;SDS011;68833;53.160;17.920;2023-05-16T01:07:55;8.30;;;7.40;;
79365;SDS011;68833;53.160;17.920;2023-05-16T01:10:22;10.50;;;6.30;;
79365;SDS011;68833;53.160;17.920;2023-05-16T01:13:35;10.80;;;7.00;;
79365;SDS011;68833;53.160;17.920;2023-05-16T01:15:49;8.80;;;6.70;;
79365;SDS011;68833;53.160;17.920;2023-05-16T01:18:51;7.00;;;6.30;;
79365;SDS011;68833;53.160;17.920;2023-05-16T01:24:47;11.80;;;7.20;;
79365;SDS011;68833;53.160;17.920;2023-05-16T01:27:24;8.10;;;6.00;;
79365;SDS011;68833;53.160;17.920;2023-05-16T01:32:46;11.70;;;7.80;;
79365;SDS011;68833;53.160;17.920;2023-05-16T01:35:15;10.20;;;7.50;;
79365;SDS011;68833;53.160;17.920;2023-05-16T01:37:47;11.20;;;7.40;;
79365;SDS011;68833;53.160;17.920;2023-05-16T01:40:25;9.20;;;7.10;;
79365;SDS011;68833;53.160;17.920;2023-05-16T01:43:33;6.70;;;5.80;;
79365;SDS011;68833;53.160;17.920;2023-05-16T01:46:15;10.90;;;8.80;;
79365;SDS011;68833;53.160;17.920;2023-05-16T01:48:52;8.70;;;7.60;;
79365;SDS011;68833;53.160;17.920;2023-05-16T01:51:58;11.60;;;6.90;;
79365;SDS011;68833;53.160;17.920;2023-05-16T01:54:30;9.40;;;6.70;;
79365;SDS011;68833;53.160;17.920;2023-05-16T01:56:59;7.90;;;6.60;;
79365;SDS011;68833;53.160;17.920;2023-05-16T01:59:29;8.40;;;6.90;;
79365;SDS011;68833;53.160;17.920;2023-05-16T02:04:26;8.20;;;7.40;;
79365;SDS011;68833;53.160;17.920;2023-05-16T02:06:54;6.20;;;5.60;;
79365;SDS011;68833;53.160;17.920;2023-05-16T02:09:26;7.00;;;5.00;;
79365;SDS011;68833;53.160;17.920;2023-05-16T02:11:54;7.30;;;5.80;;
79365;SDS011;68833;53.160;17.920;2023-05-16T02:14:22;9.10;;;5.90;;
79365;SDS011;68833;53.160;17.920;2023-05-16T02:16:51;7.50;;;5.10;;
79365;SDS011;68833;53.160;17.920;2023-05-16T02:21:48;4.70;;;3.80;;
79365;SDS011;68833;53.160;17.920;2023-05-16T02:24:16;4.90;;;3.50;;
79365;SDS011;68833;53.160;17.920;2023-05-16T02:26:44;6.00;;;3.90;;
79365;SDS011;68833;53.160;17.920;2023-05-16T02:29:12;4.80;;;4.20;;
79365;SDS011;68833;53.160;17.920;2023-05-16T02:31:41;4.10;;;3.50;;
79365;SDS011;68833;53.160;17.920;2023-05-16T02:34:10;4.20;;;2.80;;
79365;SDS011;68833;53.160;17.920;2023-05-16T02:36:37;4.90;;;3.20;;
79365;SDS011;68833;53.160;17.920;2023-05-16T02:39:04;3.80;;;2.70;;
79365;SDS011;68833;53.160;17.920;2023-05-16T02:41:32;5.40;;;3.10;;
79365;SDS011;68833;53.160;17.920;2023-05-16T02:44:10;4.90;;;3.40;;
79365;SDS011;68833;53.160;17.920;2023-05-16T02:46:39;4.40;;;3.20;;
79365;SDS011;68833;53.160;17.920;2023-05-16T02:49:07;6.90;;;3.60;;
79365;SDS011;68833;53.160;17.920;2023-05-16T02:51:34;4.60;;;3.00;;
79365;SDS011;68833;53.160;17.920;2023-05-16T02:54:02;4.70;;;3.10;;
79365;SDS011;68833;53.160;17.920;2023-05-16T02:56:30;4.00;;;3.10;;
79365;SDS011;68833;53.160;17.920;2023-05-16T02:59:00;4.30;;;3.50;;
79365;SDS011;68833;53.160;17.920;2023-05-16T03:01:29;4.20;;;3.30;;
79365;SDS011;68833;53.160;17.920;2023-05-16T03:06:27;5.20;;;3.30;;
79365;SDS011;68833;53.160;17.920;2023-05-16T03:08:56;5.00;;;3.10;;
79365;SDS011;68833;53.160;17.920;2023-05-16T03:11:23;4.60;;;2.80;;
79365;SDS011;68833;53.160;17.920;2023-05-16T03:13:54;6.40;;;3.20;;
79365;SDS011;68833;53.160;17.920;2023-05-16T03:16:22;5.40;;;3.00;;
79365;SDS011;68833;53.160;17.920;2023-05-16T03:18:54;5.00;;;2.90;;
79365;SDS011;68833;53.160;17.920;2023-05-16T03:21:23;4.50;;;2.60;;
79365;SDS011;68833;53.160;17.920;2023-05-16T03:23:50;4.00;;;2.70;;
79365;SDS011;68833;53.160;17.920;2023-05-16T03:26:17;2.80;;;2.50;;
79365;SDS011;68833;53.160;17.920;2023-05-16T03:28:45;4.50;;;3.00;;
79365;SDS011;68833;53.160;17.920;2023-05-16T03:31:13;5.50;;;3.40;;
79365;SDS011;68833;53.160;17.920;2023-05-16T03:33:40;4.50;;;2.70;;
79365;SDS011;68833;53.160;17.920;2023-05-16T03:36:08;4.20;;;2.90;;
79365;SDS011;68833;53.160;17.920;2023-05-16T03:38:36;3.80;;;2.80;;
79365;SDS011;68833;53.160;17.920;2023-05-16T03:41:04;3.60;;;3.00;;
79365;SDS011;68833;53.160;17.920;2023-05-16T03:43:31;3.30;;;3.00;;
79365;SDS011;68833;53.160;17.920;2023-05-16T03:46:02;4.90;;;2.80;;
79365;SDS011;68833;53.160;17.920;2023-05-16T03:48:30;4.40;;;2.70;;
79365;SDS011;68833;53.160;17.920;2023-05-16T03:50:58;6.00;;;3.10;;
79365;SDS011;68833;53.160;17.920;2023-05-16T03:53:26;3.50;;;2.80;;
79365;SDS011;68833;53.160;17.920;2023-05-16T03:55:53;4.30;;;3.10;;
79365;SDS011;68833;53.160;17.920;2023-05-16T03:58:20;4.50;;;2.80;;
79365;SDS011;68833;53.160;17.920;2023-05-16T04:00:48;3.90;;;2.60;;
79365;SDS011;68833;53.160;17.920;2023-05-16T04:03:16;4.00;;;3.20;;
79365;SDS011;68833;53.160;17.920;2023-05-16T04:05:53;5.30;;;2.90;;
79365;SDS011;68833;53.160;17.920;2023-05-16T04:08:22;5.60;;;2.90;;
79365;SDS011;68833;53.160;17.920;2023-05-16T04:10:50;4.00;;;2.50;;
79365;SDS011;68833;53.160;17.920;2023-05-16T04:13:17;2.80;;;2.30;;
79365;SDS011;68833;53.160;17.920;2023-05-16T04:15:45;3.20;;;2.70;;
79365;SDS011;68833;53.160;17.920;2023-05-16T04:18:13;2.80;;;2.30;;
79365;SDS011;68833;53.160;17.920;2023-05-16T04:20:41;3.50;;;2.20;;
79365;SDS011;68833;53.160;17.920;2023-05-16T04:23:09;3.00;;;2.60;;
79365;SDS011;68833;53.160;17.920;2023-05-16T04:25:38;4.90;;;2.50;;
79365;SDS011;68833;53.160;17.920;2023-05-16T04:28:05;3.40;;;2.70;;
79365;SDS011;68833;53.160;17.920;2023-05-16T04:30:32;6.50;;;2.60;;
79365;SDS011;68833;53.160;17.920;2023-05-16T04:32:59;3.80;;;2.80;;
79365;SDS011;68833;53.160;17.920;2023-05-16T04:35:26;4.70;;;2.40;;
79365;SDS011;68833;53.160;17.920;2023-05-16T04:37:54;3.80;;;2.80;;
79365;SDS011;68833;53.160;17.920;2023-05-16T04:40:21;3.00;;;2.20;;
79365;SDS011;68833;53.160;17.920;2023-05-16T04:42:49;6.30;;;2.30;;
79365;SDS011;68833;53.160;17.920;2023-05-16T04:45:17;5.40;;;2.80;;
79365;SDS011;68833;53.160;17.920;2023-05-16T04:47:44;4.40;;;3.00;;
79365;SDS011;68833;53.160;17.920;2023-05-16T04:50:11;3.80;;;2.80;;
79365;SDS011;68833;53.160;17.920;2023-05-16T04:52:38;4.10;;;2.90;;
79365;SDS011;68833;53.160;17.920;2023-05-16T04:55:05;5.10;;;3.20;;
79365;SDS011;68833;53.160;17.920;2023-05-16T04:57:36;8.40;;;4.10;;
79365;SDS011;68833;53.160;17.920;2023-05-16T05:00:03;3.70;;;3.20;;
79365;SDS011;68833;53.160;17.920;2023-05-16T05:02:36;4.30;;;3.30;;
79365;SDS011;68833;53.160;17.920;2023-05-16T05:05:04;6.50;;;2.90;;
79365;SDS011;68833;53.160;17.920;2023-05-16T05:07:32;4.40;;;2.90;;
79365;SDS011;68833;53.160;17.920;2023-05-16T05:09:59;3.80;;;3.00;;
79365;SDS011;68833;53.160;17.920;2023-05-16T05:12:26;6.40;;;3.30;;
79365;SDS011;68833;53.160;17.920;2023-05-16T05:14:53;3.90;;;3.10;;
79365;SDS011;68833;53.160;17.920;2023-05-16T05:17:21;6.10;;;3.50;;
79365;SDS011;68833;53.160;17.920;2023-05-16T05:19:49;6.80;;;4.00;;
79365;SDS011;68833;53.160;17.920;2023-05-16T05:22:16;5.20;;;3.80;;
79365;SDS011;68833;53.160;17.920;2023-05-16T05:24:45;3.80;;;3.30;;
79365;SDS011;68833;53.160;17.920;2023-05-16T05:27:12;4.90;;;3.50;;
79365;SDS011;68833;53.160;17.920;2023-05-16T05:29:39;5.30;;;4.00;;
79365;SDS011;68833;53.160;17.920;2023-05-16T05:32:06;5.50;;;4.00;;
79365;SDS011;68833;53.160;17.920;2023-05-16T05:34:34;6.10;;;3.60;;
79365;SDS011;68833;53.160;17.920;2023-05-16T05:37:01;5.60;;;3.90;;
79365;SDS011;68833;53.160;17.920;2023-05-16T05:39:28;5.00;;;3.20;;
79365;SDS011;68833;53.160;17.920;2023-05-16T05:41:55;5.50;;;3.70;;
79365;SDS011;68833;53.160;17.920;2023-05-16T05:44:22;5.60;;;4.60;;
79365;SDS011;68833;53.160;17.920;2023-05-16T05:46:49;6.20;;;4.10;;
79365;SDS011;68833;53.160;17.920;2023-05-16T05:49:16;5.00;;;3.60;;
79365;SDS011;68833;53.160;17.920;2023-05-16T05:51:43;4.80;;;3.40;;
79365;SDS011;68833;53.160;17.920;2023-05-16T05:54:10;4.20;;;3.50;;
79365;SDS011;68833;53.160;17.920;2023-05-16T05:56:37;5.40;;;4.10;;
79365;SDS011;68833;53.160;17.920;2023-05-16T05:59:07;6.00;;;3.90;;
79365;SDS011;68833;53.160;17.920;2023-05-16T06:04:04;5.80;;;4.10;;
79365;SDS011;68833;53.160;17.920;2023-05-16T06:06:32;4.30;;;3.70;;
79365;SDS011;68833;53.160;17.920;2023-05-16T06:08:59;4.10;;;3.40;;
79365;SDS011;68833;53.160;17.920;2023-05-16T06:11:26;6.20;;;4.50;;
79365;SDS011;68833;53.160;17.920;2023-05-16T06:13:53;5.60;;;4.50;;
79365;SDS011;68833;53.160;17.920;2023-05-16T06:16:23;6.60;;;4.30;;
79365;SDS011;68833;53.160;17.920;2023-05-16T06:18:50;6.20;;;3.90;;
79365;SDS011;68833;53.160;17.920;2023-05-16T06:21:17;5.30;;;4.10;;
79365;SDS011;68833;53.160;17.920;2023-05-16T06:23:44;7.40;;;4.30;;
79365;SDS011;68833;53.160;17.920;2023-05-16T06:26:11;5.20;;;3.80;;
79365;SDS011;68833;53.160;17.920;2023-05-16T06:28:38;5.00;;;4.50;;
79365;SDS011;68833;53.160;17.920;2023-05-16T06:31:05;7.80;;;4.10;;
79365;SDS011;68833;53.160;17.920;2023-05-16T06:33:32;6.30;;;4.80;;
79365;SDS011;68833;53.160;17.920;2023-05-16T06:35:59;5.10;;;4.30;;
79365;SDS011;68833;53.160;17.920;2023-05-16T06:38:26;6.90;;;5.10;;
79365;SDS011;68833;53.160;17.920;2023-05-16T06:40:53;7.40;;;5.60;;
79365;SDS011;68833;53.160;17.920;2023-05-16T06:43:20;6.50;;;4.80;;
79365;SDS011;68833;53.160;17.920;2023-05-16T06:45:47;8.70;;;3.80;;
79365;SDS011;68833;53.160;17.920;2023-05-16T06:48:14;5.90;;;3.90;;
79365;SDS011;68833;53.160;17.920;2023-05-16T06:50:41;7.00;;;4.80;;
79365;SDS011;68833;53.160;17.920;2023-05-16T06:53:08;5.60;;;4.30;;
79365;SDS011;68833;53.160;17.920;2023-05-16T06:55:37;5.50;;;4.80;;
79365;SDS011;68833;53.160;17.920;2023-05-16T06:58:04;6.00;;;4.40;;
79365;SDS011;68833;53.160;17.920;2023-05-16T07:00:31;8.40;;;4.80;;
79365;SDS011;68833;53.160;17.920;2023-05-16T07:02:59;8.00;;;5.50;;
79365;SDS011;68833;53.160;17.920;2023-05-16T07:05:26;7.30;;;5.10;;
79365;SDS011;68833;53.160;17.920;2023-05-16T07:07:53;8.40;;;5.00;;
79365;SDS011;68833;53.160;17.920;2023-05-16T07:10:20;6.60;;;5.40;;
79365;SDS011;68833;53.160;17.920;2023-05-16T07:12:47;12.10;;;8.00;;
79365;SDS011;68833;53.160;17.920;2023-05-16T07:15:14;7.40;;;5.10;;
79365;SDS011;68833;53.160;17.920;2023-05-16T07:17:41;6.80;;;4.40;;
79365;SDS011;68833;53.160;17.920;2023-05-16T07:20:09;8.00;;;6.30;;
79365;SDS011;68833;53.160;17.920;2023-05-16T07:22:39;7.40;;;5.70;;
79365;SDS011;68833;53.160;17.920;2023-05-16T07:25:06;5.50;;;4.30;;
79365;SDS011;68833;53.160;17.920;2023-05-16T07:27:38;7.70;;;4.10;;
79365;SDS011;68833;53.160;17.920;2023-05-16T07:30:07;10.70;;;6.50;;
79365;SDS011;68833;53.160;17.920;2023-05-16T07:32:35;7.90;;;4.70;;
79365;SDS011;68833;53.160;17.920;2023-05-16T07:35:03;6.10;;;4.10;;
79365;SDS011;68833;53.160;17.920;2023-05-16T07:37:30;6.60;;;4.30;;
79365;SDS011;68833;53.160;17.920;2023-05-16T07:39:58;12.10;;;5.00;;
79365;SDS011;68833;53.160;17.920;2023-05-16T07:42:24;5.00;;;3.70;;
79365;SDS011;68833;53.160;17.920;2023-05-16T07:44:52;6.50;;;4.60;;
79365;SDS011;68833;53.160;17.920;2023-05-16T07:47:19;7.40;;;5.40;;
79365;SDS011;68833;53.160;17.920;2023-05-16T07:49:46;8.40;;;4.70;;
79365;SDS011;68833;53.160;17.920;2023-05-16T07:52:13;5.60;;;3.90;;
79365;SDS011;68833;53.160;17.920;2023-05-16T07:54:40;8.10;;;4.70;;
79365;SDS011;68833;53.160;17.920;2023-05-16T07:57:07;4.30;;;3.60;;
79365;SDS011;68833;53.160;17.920;2023-05-16T07:59:34;6.60;;;4.90;;
79365;SDS011;68833;53.160;17.920;2023-05-16T08:02:01;6.30;;;5.00;;
79365;SDS011;68833;53.160;17.920;2023-05-16T08:04:28;4.60;;;3.90;;
79365;SDS011;68833;53.160;17.920;2023-05-16T08:06:55;4.90;;;4.00;;
79365;SDS011;68833;53.160;17.920;2023-05-16T08:09:22;5.40;;;4.20;;
79365;SDS011;68833;53.160;17.920;2023-05-16T08:11:49;5.70;;;4.10;;
79365;SDS011;68833;53.160;17.920;2023-05-16T08:14:16;6.20;;;4.50;;
79365;SDS011;68833;53.160;17.920;2023-05-16T08:16:44;6.70;;;5.50;;
79365;SDS011;68833;53.160;17.920;2023-05-16T08:19:11;6.90;;;4.40;;
79365;SDS011;68833;53.160;17.920;2023-05-16T08:21:38;10.20;;;5.20;;
79365;SDS011;68833;53.160;17.920;2023-05-16T08:24:06;5.40;;;3.70;;
79365;SDS011;68833;53.160;17.920;2023-05-16T08:26:33;5.60;;;4.10;;
79365;SDS011;68833;53.160;17.920;2023-05-16T08:29:01;5.40;;;4.50;;
79365;SDS011;68833;53.160;17.920;2023-05-16T08:31:28;9.40;;;5.20;;
79365;SDS011;68833;53.160;17.920;2023-05-16T08:33:55;5.50;;;4.40;;
79365;SDS011;68833;53.160;17.920;2023-05-16T08:36:22;5.70;;;4.20;;
79365;SDS011;68833;53.160;17.920;2023-05-16T08:38:49;5.00;;;4.10;;
79365;SDS011;68833;53.160;17.920;2023-05-16T08:41:16;6.20;;;4.90;;
79365;SDS011;68833;53.160;17.920;2023-05-16T08:43:43;7.60;;;4.60;;
79365;SDS011;68833;53.160;17.920;2023-05-16T08:46:11;4.50;;;4.10;;
79365;SDS011;68833;53.160;17.920;2023-05-16T08:48:38;5.10;;;4.40;;
79365;SDS011;68833;53.160;17.920;2023-05-16T08:51:11;5.40;;;3.90;;
79365;SDS011;68833;53.160;17.920;2023-05-16T08:53:44;7.50;;;3.70;;
79365;SDS011;68833;53.160;17.920;2023-05-16T08:56:23;4.90;;;3.40;;
79365;SDS011;68833;53.160;17.920;2023-05-16T08:58:51;8.50;;;4.50;;
79365;SDS011;68833;53.160;17.920;2023-05-16T09:01:21;10.20;;;6.20;;
79365;SDS011;68833;53.160;17.920;2023-05-16T09:03:51;19.90;;;10.40;;
79365;SDS011;68833;53.160;17.920;2023-05-16T09:06:18;22.50;;;11.90;;
79365;SDS011;68833;53.160;17.920;2023-05-16T09:08:45;5.20;;;3.80;;
79365;SDS011;68833;53.160;17.920;2023-05-16T09:11:13;7.70;;;4.30;;
79365;SDS011;68833;53.160;17.920;2023-05-16T09:13:40;8.10;;;3.90;;
79365;SDS011;68833;53.160;17.920;2023-05-16T09:16:25;4.50;;;3.50;;
79365;SDS011;68833;53.160;17.920;2023-05-16T09:18:53;3.80;;;2.70;;
79365;SDS011;68833;53.160;17.920;2023-05-16T09:21:31;4.50;;;3.40;;
79365;SDS011;68833;53.160;17.920;2023-05-16T09:24:06;6.30;;;3.20;;
79365;SDS011;68833;53.160;17.920;2023-05-16T09:26:35;4.40;;;3.60;;
79365;SDS011;68833;53.160;17.920;2023-05-16T09:29:12;4.80;;;4.20;;
79365;SDS011;68833;53.160;17.920;2023-05-16T09:31:39;15.90;;;9.10;;
79365;SDS011;68833;53.160;17.920;2023-05-16T09:34:07;40.60;;;20.70;;
79365;SDS011;68833;53.160;17.920;2023-05-16T09:36:34;28.30;;;12.80;;
79365;SDS011;68833;53.160;17.920;2023-05-16T09:39:02;59.00;;;26.50;;
79365;SDS011;68833;53.160;17.920;2023-05-16T09:41:32;23.60;;;13.50;;
79365;SDS011;68833;53.160;17.920;2023-05-16T09:44:04;10.80;;;6.80;;
79365;SDS011;68833;53.160;17.920;2023-05-16T09:46:36;11.10;;;7.50;;
79365;SDS011;68833;53.160;17.920;2023-05-16T09:49:03;6.30;;;4.10;;
79365;SDS011;68833;53.160;17.920;2023-05-16T09:51:31;5.70;;;3.20;;
79365;SDS011;68833;53.160;17.920;2023-05-16T09:53:59;12.20;;;7.00;;
79365;SDS011;68833;53.160;17.920;2023-05-16T09:56:26;7.80;;;4.20;;
79365;SDS011;68833;53.160;17.920;2023-05-16T09:58:53;4.90;;;3.20;;
79365;SDS011;68833;53.160;17.920;2023-05-16T10:03:55;4.00;;;3.20;;
79365;SDS011;68833;53.160;17.920;2023-05-16T10:06:22;4.70;;;3.00;;
79365;SDS011;68833;53.160;17.920;2023-05-16T10:08:48;6.30;;;3.50;;
79365;SDS011;68833;53.160;17.920;2023-05-16T10:11:15;4.10;;;3.70;;
79365;SDS011;68833;53.160;17.920;2023-05-16T10:13:43;4.30;;;3.30;;
79365;SDS011;68833;53.160;17.920;2023-05-16T10:16:15;4.40;;;2.90;;
79365;SDS011;68833;53.160;17.920;2023-05-16T10:18:41;6.20;;;3.60;;
79365;SDS011;68833;53.160;17.920;2023-05-16T10:21:09;4.80;;;3.60;;
79365;SDS011;68833;53.160;17.920;2023-05-16T10:23:42;4.60;;;4.20;;
79365;SDS011;68833;53.160;17.920;2023-05-16T10:26:12;8.00;;;3.60;;
79365;SDS011;68833;53.160;17.920;2023-05-16T10:28:41;4.30;;;3.30;;
79365;SDS011;68833;53.160;17.920;2023-05-16T10:31:07;4.50;;;3.70;;
79365;SDS011;68833;53.160;17.920;2023-05-16T10:33:35;8.70;;;4.10;;
79365;SDS011;68833;53.160;17.920;2023-05-16T10:36:02;5.80;;;4.10;;
79365;SDS011;68833;53.160;17.920;2023-05-16T10:38:30;6.60;;;3.70;;
79365;SDS011;68833;53.160;17.920;2023-05-16T10:40:57;6.10;;;4.10;;
79365;SDS011;68833;53.160;17.920;2023-05-16T10:43:28;9.20;;;4.20;;
79365;SDS011;68833;53.160;17.920;2023-05-16T10:45:56;5.40;;;3.60;;
79365;SDS011;68833;53.160;17.920;2023-05-16T10:48:34;3.60;;;2.80;;
79365;SDS011;68833;53.160;17.920;2023-05-16T10:51:01;4.60;;;3.60;;
79365;SDS011;68833;53.160;17.920;2023-05-16T11:04:05;9.00;;;4.00;;
79365;SDS011;68833;53.160;17.920;2023-05-16T11:14:04;5.20;;;3.80;;
79365;SDS011;68833;53.160;17.920;2023-05-16T11:16:31;4.70;;;4.00;;
79365;SDS011;68833;53.160;17.920;2023-05-16T11:19:05;7.90;;;5.30;;
79365;SDS011;68833;53.160;17.920;2023-05-16T11:24:31;6.90;;;3.80;;
79365;SDS011;68833;53.160;17.920;2023-05-16T11:26:58;7.30;;;4.20;;
79365;SDS011;68833;53.160;17.920;2023-05-16T11:29:25;5.10;;;4.20;;
79365;SDS011;68833;53.160;17.920;2023-05-16T11:31:53;6.60;;;4.00;;
79365;SDS011;68833;53.160;17.920;2023-05-16T11:34:20;4.70;;;4.20;;
79365;SDS011;68833;53.160;17.920;2023-05-16T11:36:46;5.60;;;4.20;;
79365;SDS011;68833;53.160;17.920;2023-05-16T11:39:13;6.80;;;4.60;;
79365;SDS011;68833;53.160;17.920;2023-05-16T11:41:40;8.30;;;4.30;;
79365;SDS011;68833;53.160;17.920;2023-05-16T11:44:06;6.10;;;4.00;;
79365;SDS011;68833;53.160;17.920;2023-05-16T11:46:32;6.60;;;4.50;;
79365;SDS011;68833;53.160;17.920;2023-05-16T11:48:59;9.50;;;4.20;;
79365;SDS011;68833;53.160;17.920;2023-05-16T11:51:25;5.50;;;4.40;;
79365;SDS011;68833;53.160;17.920;2023-05-16T11:53:52;5.90;;;4.20;;
79365;SDS011;68833;53.160;17.920;2023-05-16T11:56:19;5.60;;;4.40;;
79365;SDS011;68833;53.160;17.920;2023-05-16T11:58:47;6.30;;;4.80;;
79365;SDS011;68833;53.160;17.920;2023-05-16T12:01:14;5.00;;;4.10;;
79365;SDS011;68833;53.160;17.920;2023-05-16T12:03:40;6.10;;;3.90;;
79365;SDS011;68833;53.160;17.920;2023-05-16T12:06:07;6.20;;;4.00;;
79365;SDS011;68833;53.160;17.920;2023-05-16T12:08:33;7.30;;;4.40;;
79365;SDS011;68833;53.160;17.920;2023-05-16T12:10:59;8.60;;;5.10;;
79365;SDS011;68833;53.160;17.920;2023-05-16T12:13:26;6.90;;;4.80;;
79365;SDS011;68833;53.160;17.920;2023-05-16T12:15:53;6.50;;;4.70;;
79365;SDS011;68833;53.160;17.920;2023-05-16T12:18:19;5.30;;;4.10;;
79365;SDS011;68833;53.160;17.920;2023-05-16T12:20:46;4.90;;;4.40;;
79365;SDS011;68833;53.160;17.920;2023-05-16T12:23:13;7.30;;;4.70;;
79365;SDS011;68833;53.160;17.920;2023-05-16T12:25:44;5.30;;;4.80;;
79365;SDS011;68833;53.160;17.920;2023-05-16T12:28:12;5.10;;;4.60;;
79365;SDS011;68833;53.160;17.920;2023-05-16T12:30:40;8.30;;;4.90;;
79365;SDS011;68833;53.160;17.920;2023-05-16T12:33:11;5.60;;;4.30;;
79365;SDS011;68833;53.160;17.920;2023-05-16T12:35:48;5.50;;;3.90;;
79365;SDS011;68833;53.160;17.920;2023-05-16T12:38:16;7.00;;;4.50;;
79365;SDS011;68833;53.160;17.920;2023-05-16T12:40:45;5.20;;;4.60;;
79365;SDS011;68833;53.160;17.920;2023-05-16T12:43:15;6.80;;;4.60;;
79365;SDS011;68833;53.160;17.920;2023-05-16T12:45:51;5.00;;;4.40;;
79365;SDS011;68833;53.160;17.920;2023-05-16T12:48:22;8.40;;;4.80;;
79365;SDS011;68833;53.160;17.920;2023-05-16T12:50:54;7.10;;;4.60;;
79365;SDS011;68833;53.160;17.920;2023-05-16T12:53:21;7.90;;;4.80;;
79365;SDS011;68833;53.160;17.920;2023-05-16T12:55:47;11.70;;;7.50;;
79365;SDS011;68833;53.160;17.920;2023-05-16T12:58:13;9.90;;;8.30;;
79365;SDS011;68833;53.160;17.920;2023-05-16T13:00:41;9.20;;;7.50;;
79365;SDS011;68833;53.160;17.920;2023-05-16T13:03:07;9.50;;;7.40;;
79365;SDS011;68833;53.160;17.920;2023-05-16T13:05:34;10.60;;;8.20;;
79365;SDS011;68833;53.160;17.920;2023-05-16T13:08:00;11.60;;;8.20;;
79365;SDS011;68833;53.160;17.920;2023-05-16T13:10:27;11.10;;;8.90;;
79365;SDS011;68833;53.160;17.920;2023-05-16T13:12:54;11.70;;;9.10;;
79365;SDS011;68833;53.160;17.920;2023-05-16T13:15:23;10.60;;;8.10;;
79365;SDS011;68833;53.160;17.920;2023-05-16T13:17:50;12.60;;;7.90;;
79365;SDS011;68833;53.160;17.920;2023-05-16T13:20:16;10.50;;;8.10;;
79365;SDS011;68833;53.160;17.920;2023-05-16T13:22:42;9.60;;;6.90;;
79365;SDS011;68833;53.160;17.920;2023-05-16T13:25:09;13.50;;;8.20;;
79365;SDS011;68833;53.160;17.920;2023-05-16T13:27:36;12.90;;;8.30;;
79365;SDS011;68833;53.160;17.920;2023-05-16T13:30:03;16.30;;;8.30;;
79365;SDS011;68833;53.160;17.920;2023-05-16T13:32:29;11.50;;;8.90;;
79365;SDS011;68833;53.160;17.920;2023-05-16T13:34:56;14.40;;;10.10;;
79365;SDS011;68833;53.160;17.920;2023-05-16T13:37:22;12.10;;;8.50;;
79365;SDS011;68833;53.160;17.920;2023-05-16T13:39:51;10.90;;;8.10;;
79365;SDS011;68833;53.160;17.920;2023-05-16T13:42:21;14.10;;;8.10;;
79365;SDS011;68833;53.160;17.920;2023-05-16T13:44:47;10.00;;;7.60;;
79365;SDS011;68833;53.160;17.920;2023-05-16T13:47:13;11.10;;;8.40;;
79365;SDS011;68833;53.160;17.920;2023-05-16T13:49:39;12.20;;;8.20;;
79365;SDS011;68833;53.160;17.920;2023-05-16T13:52:06;13.20;;;8.90;;
79365;SDS011;68833;53.160;17.920;2023-05-16T13:54:32;12.20;;;8.50;;
79365;SDS011;68833;53.160;17.920;2023-05-16T13:56:58;13.10;;;8.10;;
79365;SDS011;68833;53.160;17.920;2023-05-16T13:59:25;9.50;;;7.50;;
79365;SDS011;68833;53.160;17.920;2023-05-16T14:01:51;9.80;;;7.30;;
79365;SDS011;68833;53.160;17.920;2023-05-16T14:04:18;7.70;;;5.40;;
79365;SDS011;68833;53.160;17.920;2023-05-16T14:06:44;12.90;;;8.40;;
79365;SDS011;68833;53.160;17.920;2023-05-16T14:09:10;12.60;;;8.30;;
79365;SDS011;68833;53.160;17.920;2023-05-16T14:11:38;13.70;;;8.20;;
79365;SDS011;68833;53.160;17.920;2023-05-16T14:14:04;10.30;;;8.10;;
79365;SDS011;68833;53.160;17.920;2023-05-16T14:16:30;13.70;;;7.80;;
79365;SDS011;68833;53.160;17.920;2023-05-16T14:18:58;13.00;;;8.60;;
79365;SDS011;68833;53.160;17.920;2023-05-16T14:21:24;14.20;;;9.10;;
79365;SDS011;68833;53.160;17.920;2023-05-16T14:23:51;12.80;;;8.60;;
79365;SDS011;68833;53.160;17.920;2023-05-16T14:26:17;12.10;;;7.40;;
79365;SDS011;68833;53.160;17.920;2023-05-16T14:28:47;12.90;;;8.20;;
79365;SDS011;68833;53.160;17.920;2023-05-16T14:31:13;14.00;;;10.00;;
79365;SDS011;68833;53.160;17.920;2023-05-16T14:33:40;14.90;;;8.70;;
79365;SDS011;68833;53.160;17.920;2023-05-16T14:36:08;16.20;;;10.40;;
79365;SDS011;68833;53.160;17.920;2023-05-16T14:38:35;14.10;;;10.20;;
79365;SDS011;68833;53.160;17.920;2023-05-16T14:41:04;14.00;;;9.40;;
79365;SDS011;68833;53.160;17.920;2023-05-16T14:43:30;15.40;;;10.60;;
79365;SDS011;68833;53.160;17.920;2023-05-16T14:45:57;12.70;;;9.50;;
79365;SDS011;68833;53.160;17.920;2023-05-16T14:48:23;12.80;;;10.00;;
79365;SDS011;68833;53.160;17.920;2023-05-16T14:50:50;15.80;;;10.10;;
79365;SDS011;68833;53.160;17.920;2023-05-16T14:53:16;13.30;;;9.50;;
79365;SDS011;68833;53.160;17.920;2023-05-16T14:55:43;14.20;;;10.60;;
79365;SDS011;68833;53.160;17.920;2023-05-16T14:58:09;15.60;;;10.20;;
79365;SDS011;68833;53.160;17.920;2023-05-16T15:00:36;15.10;;;10.10;;
79365;SDS011;68833;53.160;17.920;2023-05-16T15:03:03;14.40;;;10.40;;
79365;SDS011;68833;53.160;17.920;2023-05-16T15:05:29;12.80;;;10.40;;
79365;SDS011;68833;53.160;17.920;2023-05-16T15:07:56;14.10;;;10.70;;
79365;SDS011;68833;53.160;17.920;2023-05-16T15:10:25;14.40;;;10.00;;
79365;SDS011;68833;53.160;17.920;2023-05-16T15:12:51;13.10;;;10.20;;
79365;SDS011;68833;53.160;17.920;2023-05-16T15:15:18;12.50;;;10.60;;
79365;SDS011;68833;53.160;17.920;2023-05-16T15:17:44;19.30;;;9.80;;